KCEZ/CEZ METAR and TAF weather

Enter ICAO airport designator
Station Type Date Time Source
KCEZ METAR 2018/10/21 02:53 UTC NOAA

KCEZ 210253Z AUTO 04005KT 10SM CLR 10/M01 A3033 RMK AO2 SLP241 T01001011 52003


Station Type Date Time Source
KCEZ Decoded METAR 2018/10/21 02:53 UTC NOAA

CORTEZ MONTEZUMA COUNTY AIRPORT , CO, United States (KCEZ) 37-18N 108-38W 1797M
Oct 20, 2018 - 10:53 PM EDT / 2018.10.21 0253 UTC
Wind: from the NE (040 degrees) at 6 MPH (5 KT):0
Visibility: 10 mile(s):0
Sky conditions: clear
Temperature: 50.0 F (10.0 C)
Dew Point: 30.0 F (-1.1 C)
Relative Humidity: 45%
Pressure (altimeter): 30.33 in. Hg (1027 hPa)
Pressure tendency: 0.01 inches (0.3 hPa) higher than three hours ago
ob: KCEZ 210253Z AUTO 04005KT 10SM CLR 10/M01 A3033 RMK AO2 SLP241 T01001011 52003
cycle: 3

Station Type Date Time Source
KCEZ TAF UTC NOAA

Error!


Example: see airport list